sensor_id;sensor_type;location;lat;lon;timestamp;pressure;altitude;pressure_sealevel;temperature;humidity
75788;BME280;64406;50.024;14.492;2023-03-01T00:01:47;99167.41;;;-3.94;72.80
75788;BME280;64406;50.024;14.492;2023-03-01T00:04:13;99169.22;;;-3.95;72.77
75788;BME280;64406;50.024;14.492;2023-03-01T00:06:38;99167.88;;;-3.91;73.45
75788;BME280;64406;50.024;14.492;2023-03-01T00:09:05;99172.66;;;-3.94;73.65
75788;BME280;64406;50.024;14.492;2023-03-01T00:11:32;99167.88;;;-3.91;73.33
75788;BME280;64406;50.024;14.492;2023-03-01T00:14:00;99172.97;;;-3.97;73.66
75788;BME280;64406;50.024;14.492;2023-03-01T00:16:29;99141.03;;;-4.19;73.89
75788;BME280;64406;50.024;14.492;2023-03-01T00:18:56;99168.22;;;-4.02;73.51
75788;BME280;64406;50.024;14.492;2023-03-01T00:21:23;99165.25;;;-4.07;73.91
75788;BME280;64406;50.024;14.492;2023-03-01T00:23:49;99178.41;;;-4.07;74.21
75788;BME280;64406;50.024;14.492;2023-03-01T00:26:16;99166.38;;;-4.10;73.98
75788;BME280;64406;50.024;14.492;2023-03-01T00:28:43;99170.34;;;-3.97;73.37
75788;BME280;64406;50.024;14.492;2023-03-01T00:31:14;99137.25;;;-4.16;73.41
75788;BME280;64406;50.024;14.492;2023-03-01T00:33:40;99165.91;;;-4.05;74.13
75788;BME280;64406;50.024;14.492;2023-03-01T00:36:07;99146.59;;;-4.30;74.63
75788;BME280;64406;50.024;14.492;2023-03-01T00:38:41;99163.56;;;-4.16;74.09
75788;BME280;64406;50.024;14.492;2023-03-01T00:41:10;99149.94;;;-4.12;73.87
75788;BME280;64406;50.024;14.492;2023-03-01T00:43:35;99145.47;;;-4.19;73.92
75788;BME280;64406;50.024;14.492;2023-03-01T00:46:12;99146.47;;;-4.12;74.52
75788;BME280;64406;50.024;14.492;2023-03-01T00:48:41;99146.47;;;-4.12;74.67
75788;BME280;64406;50.024;14.492;2023-03-01T00:53:33;99127.88;;;-4.27;74.88
75788;BME280;64406;50.024;14.492;2023-03-01T00:55:59;99130.69;;;-4.28;75.13
75788;BME280;64406;50.024;14.492;2023-03-01T00:58:25;99139.06;;;-4.25;74.29
75788;BME280;64406;50.024;14.492;2023-03-01T01:00:51;99129.34;;;-4.32;75.08
75788;BME280;64406;50.024;14.492;2023-03-01T01:03:18;99140.41;;;-4.21;74.92
75788;BME280;64406;50.024;14.492;2023-03-01T01:05:45;99137.09;;;-4.23;75.20
75788;BME280;64406;50.024;14.492;2023-03-01T01:08:11;99142.03;;;-4.20;74.31
75788;BME280;64406;50.024;14.492;2023-03-01T01:10:37;99118.84;;;-4.32;75.39
75788;BME280;64406;50.024;14.492;2023-03-01T01:13:03;99117.66;;;-4.30;75.11
75788;BME280;64406;50.024;14.492;2023-03-01T01:15:31;99124.44;;;-4.35;75.59
75788;BME280;64406;50.024;14.492;2023-03-01T01:17:58;99114.19;;;-4.47;75.01
75788;BME280;64406;50.024;14.492;2023-03-01T01:20:24;99106.16;;;-4.45;75.66
75788;BME280;64406;50.024;14.492;2023-03-01T01:22:49;99113.56;;;-4.49;75.87
75788;BME280;64406;50.024;14.492;2023-03-01T01:25:16;99105.78;;;-4.50;75.39
75788;BME280;64406;50.024;14.492;2023-03-01T01:27:42;99113.41;;;-4.39;76.30
75788;BME280;64406;50.024;14.492;2023-03-01T01:30:08;99096.44;;;-4.53;75.96
75788;BME280;64406;50.024;14.492;2023-03-01T01:32:34;99119.94;;;-4.43;75.52
75788;BME280;64406;50.024;14.492;2023-03-01T01:35:00;99106.31;;;-4.47;76.07
75788;BME280;64406;50.024;14.492;2023-03-01T01:37:25;99102.19;;;-4.49;75.36
75788;BME280;64406;50.024;14.492;2023-03-01T01:40:00;99105.97;;;-4.44;76.11
75788;BME280;64406;50.024;14.492;2023-03-01T01:42:26;99119.66;;;-4.32;76.20
75788;BME280;64406;50.024;14.492;2023-03-01T01:47:50;99111.75;;;-4.40;76.28
75788;BME280;64406;50.024;14.492;2023-03-01T01:50:18;99106.97;;;-4.45;76.18
75788;BME280;64406;50.024;14.492;2023-03-01T01:52:44;99087.56;;;-4.52;76.13
75788;BME280;64406;50.024;14.492;2023-03-01T01:55:16;99099.56;;;-4.49;75.91
75788;BME280;64406;50.024;14.492;2023-03-01T01:57:49;99106.31;;;-4.55;76.93
75788;BME280;64406;50.024;14.492;2023-03-01T02:00:23;99110.25;;;-4.51;76.29
75788;BME280;64406;50.024;14.492;2023-03-01T02:02:53;99077.13;;;-4.78;76.58
75788;BME280;64406;50.024;14.492;2023-03-01T02:05:25;99098.81;;;-4.76;77.44
75788;BME280;64406;50.024;14.492;2023-03-01T02:07:51;99110.19;;;-4.75;76.98
75788;BME280;64406;50.024;14.492;2023-03-01T02:10:17;99088.09;;;-4.90;77.48
75788;BME280;64406;50.024;14.492;2023-03-01T02:12:44;99102.06;;;-4.90;78.46
75788;BME280;64406;50.024;14.492;2023-03-01T02:15:10;99095.34;;;-4.84;78.36
75788;BME280;64406;50.024;14.492;2023-03-01T02:17:35;99092.66;;;-5.01;78.29
75788;BME280;64406;50.024;14.492;2023-03-01T02:20:10;99096.81;;;-4.90;78.61
75788;BME280;64406;50.024;14.492;2023-03-01T02:22:39;99084.66;;;-4.91;77.91
75788;BME280;64406;50.024;14.492;2023-03-01T02:25:09;99099.78;;;-4.85;77.80
75788;BME280;64406;50.024;14.492;2023-03-01T02:27:49;99068.50;;;-5.04;78.90
75788;BME280;64406;50.024;14.492;2023-03-01T02:30:19;99060.97;;;-5.07;78.56
75788;BME280;64406;50.024;14.492;2023-03-01T02:32:46;99067.38;;;-5.02;78.33
75788;BME280;64406;50.024;14.492;2023-03-01T02:35:15;99067.19;;;-5.08;78.89
75788;BME280;64406;50.024;14.492;2023-03-01T02:37:42;99081.66;;;-5.04;79.32
75788;BME280;64406;50.024;14.492;2023-03-01T02:40:14;99093.59;;;-5.10;78.78
75788;BME280;64406;50.024;14.492;2023-03-01T02:42:53;99085.03;;;-5.20;79.09
75788;BME280;64406;50.024;14.492;2023-03-01T02:45:19;99085.19;;;-5.22;79.32
75788;BME280;64406;50.024;14.492;2023-03-01T02:47:45;99082.66;;;-5.31;79.85
75788;BME280;64406;50.024;14.492;2023-03-01T02:50:21;99078.91;;;-5.29;79.89
75788;BME280;64406;50.024;14.492;2023-03-01T02:53:13;99089.97;;;-5.17;80.10
75788;BME280;64406;50.024;14.492;2023-03-01T02:55:40;99077.00;;;-5.18;79.62
75788;BME280;64406;50.024;14.492;2023-03-01T02:58:06;99090.78;;;-5.16;79.51
75788;BME280;64406;50.024;14.492;2023-03-01T03:00:37;99067.94;;;-5.24;79.27
75788;BME280;64406;50.024;14.492;2023-03-01T03:03:13;99062.81;;;-5.34;80.03
75788;BME280;64406;50.024;14.492;2023-03-01T03:05:39;99088.66;;;-5.21;80.35
75788;BME280;64406;50.024;14.492;2023-03-01T03:08:05;99076.34;;;-5.21;80.05
75788;BME280;64406;50.024;14.492;2023-03-01T03:10:35;99080.59;;;-5.20;79.56
75788;BME280;64406;50.024;14.492;2023-03-01T03:13:13;99069.56;;;-5.23;79.36
75788;BME280;64406;50.024;14.492;2023-03-01T03:15:39;99080.28;;;-5.16;80.00
75788;BME280;64406;50.024;14.492;2023-03-01T03:18:09;99079.44;;;-5.17;79.08
75788;BME280;64406;50.024;14.492;2023-03-01T03:20:36;99078.53;;;-5.08;79.11
75788;BME280;64406;50.024;14.492;2023-03-01T03:23:01;99064.06;;;-5.12;78.97
75788;BME280;64406;50.024;14.492;2023-03-01T03:25:28;99067.69;;;-5.05;78.73
75788;BME280;64406;50.024;14.492;2023-03-01T03:27:54;99063.06;;;-5.11;79.17
75788;BME280;64406;50.024;14.492;2023-03-01T03:30:29;99046.09;;;-5.25;79.30
75788;BME280;64406;50.024;14.492;2023-03-01T03:32:55;99069.09;;;-5.18;79.16
75788;BME280;64406;50.024;14.492;2023-03-01T03:35:33;99066.13;;;-5.24;79.98
75788;BME280;64406;50.024;14.492;2023-03-01T03:38:01;99057.59;;;-5.26;79.68
75788;BME280;64406;50.024;14.492;2023-03-01T03:43:01;99056.78;;;-5.26;80.15
75788;BME280;64406;50.024;14.492;2023-03-01T03:45:29;99058.88;;;-5.30;80.65
75788;BME280;64406;50.024;14.492;2023-03-01T03:47:55;99056.56;;;-5.33;79.74
75788;BME280;64406;50.024;14.492;2023-03-01T03:50:20;99058.41;;;-5.25;79.83
75788;BME280;64406;50.024;14.492;2023-03-01T03:52:47;99048.34;;;-5.38;80.57
75788;BME280;64406;50.024;14.492;2023-03-01T03:55:17;99050.97;;;-5.38;81.25
75788;BME280;64406;50.024;14.492;2023-03-01T03:57:46;99048.97;;;-5.44;80.96
75788;BME280;64406;50.024;14.492;2023-03-01T04:00:21;99051.59;;;-5.44;81.15
75788;BME280;64406;50.024;14.492;2023-03-01T04:02:49;99057.16;;;-5.47;80.86
75788;BME280;64406;50.024;14.492;2023-03-01T04:05:17;99058.13;;;-5.48;80.73
75788;BME280;64406;50.024;14.492;2023-03-01T04:07:43;99055.19;;;-5.45;81.15
75788;BME280;64406;50.024;14.492;2023-03-01T04:10:12;99052.59;;;-5.37;81.37
75788;BME280;64406;50.024;14.492;2023-03-01T04:12:39;99052.94;;;-5.40;81.11
75788;BME280;64406;50.024;14.492;2023-03-01T04:15:06;99061.66;;;-5.31;80.77
75788;BME280;64406;50.024;14.492;2023-03-01T04:17:43;99055.59;;;-5.32;80.53
75788;BME280;64406;50.024;14.492;2023-03-01T04:20:16;99056.84;;;-5.44;80.60
75788;BME280;64406;50.024;14.492;2023-03-01T04:23:05;99059.09;;;-5.49;81.74
75788;BME280;64406;50.024;14.492;2023-03-01T04:25:40;99057.25;;;-5.57;80.88
75788;BME280;64406;50.024;14.492;2023-03-01T04:28:08;99054.75;;;-5.66;82.12
75788;BME280;64406;50.024;14.492;2023-03-01T04:30:36;99046.50;;;-5.71;82.34
75788;BME280;64406;50.024;14.492;2023-03-01T04:33:03;99048.16;;;-5.70;81.83
75788;BME280;64406;50.024;14.492;2023-03-01T04:35:30;99039.47;;;-5.71;82.25
75788;BME280;64406;50.024;14.492;2023-03-01T04:37:57;99053.66;;;-5.56;81.26
75788;BME280;64406;50.024;14.492;2023-03-01T04:40:23;99041.84;;;-5.60;81.87
75788;BME280;64406;50.024;14.492;2023-03-01T04:42:48;99053.00;;;-5.58;81.73
75788;BME280;64406;50.024;14.492;2023-03-01T04:45:14;99063.03;;;-5.53;81.63
75788;BME280;64406;50.024;14.492;2023-03-01T04:47:41;99060.53;;;-5.55;81.54
75788;BME280;64406;50.024;14.492;2023-03-01T04:50:14;99049.84;;;-5.61;81.11
75788;BME280;64406;50.024;14.492;2023-03-01T04:52:41;99066.94;;;-5.57;82.20
75788;BME280;64406;50.024;14.492;2023-03-01T04:55:07;99057.09;;;-5.55;81.17
75788;BME280;64406;50.024;14.492;2023-03-01T04:57:33;99056.28;;;-5.56;81.44
75788;BME280;64406;50.024;14.492;2023-03-01T04:59:59;99054.78;;;-5.58;80.99
75788;BME280;64406;50.024;14.492;2023-03-01T05:02:24;99066.63;;;-5.54;82.06
75788;BME280;64406;50.024;14.492;2023-03-01T05:04:51;99059.44;;;-5.52;81.89
75788;BME280;64406;50.024;14.492;2023-03-01T05:07:17;99033.41;;;-5.71;81.71
75788;BME280;64406;50.024;14.492;2023-03-01T05:09:46;99053.78;;;-5.65;82.50
75788;BME280;64406;50.024;14.492;2023-03-01T05:12:13;99064.75;;;-5.62;82.17
75788;BME280;64406;50.024;14.492;2023-03-01T05:14:39;99071.00;;;-5.63;82.07
75788;BME280;64406;50.024;14.492;2023-03-01T05:17:05;99056.56;;;-5.67;81.88
75788;BME280;64406;50.024;14.492;2023-03-01T05:19:31;99066.94;;;-5.57;82.11
75788;BME280;64406;50.024;14.492;2023-03-01T05:21:58;99050.50;;;-5.67;82.34
75788;BME280;64406;50.024;14.492;2023-03-01T05:24:28;99050.31;;;-5.66;81.95
75788;BME280;64406;50.024;14.492;2023-03-01T05:26:54;99040.59;;;-5.73;82.10
75788;BME280;64406;50.024;14.492;2023-03-01T05:29:21;99029.09;;;-5.81;82.98
75788;BME280;64406;50.024;14.492;2023-03-01T05:31:58;99045.84;;;-5.73;82.13
75788;BME280;64406;50.024;14.492;2023-03-01T05:34:28;99045.50;;;-5.79;83.34
75788;BME280;64406;50.024;14.492;2023-03-01T05:36:54;99035.97;;;-5.80;83.28
75788;BME280;64406;50.024;14.492;2023-03-01T05:39:21;99044.13;;;-5.83;83.30
75788;BME280;64406;50.024;14.492;2023-03-01T05:41:48;99036.75;;;-5.87;82.74
75788;BME280;64406;50.024;14.492;2023-03-01T05:44:19;99041.31;;;-5.89;83.98
75788;BME280;64406;50.024;14.492;2023-03-01T05:46:45;99014.97;;;-6.14;83.84
75788;BME280;64406;50.024;14.492;2023-03-01T05:49:12;99024.19;;;-6.02;83.29
75788;BME280;64406;50.024;14.492;2023-03-01T05:51:39;99037.63;;;-6.05;82.66
75788;BME280;64406;50.024;14.492;2023-03-01T05:54:05;99040.41;;;-6.06;82.32
75788;BME280;64406;50.024;14.492;2023-03-01T05:56:35;99039.06;;;-6.10;83.86
75788;BME280;64406;50.024;14.492;2023-03-01T05:59:03;99019.41;;;-6.32;83.84
75788;BME280;64406;50.024;14.492;2023-03-01T06:01:31;99042.59;;;-6.19;83.25
75788;BME280;64406;50.024;14.492;2023-03-01T06:03:57;99037.38;;;-6.19;83.29
75788;BME280;64406;50.024;14.492;2023-03-01T06:06:23;99034.53;;;-6.26;84.22
75788;BME280;64406;50.024;14.492;2023-03-01T06:08:51;99035.88;;;-6.40;83.77
75788;BME280;64406;50.024;14.492;2023-03-01T06:11:17;99035.63;;;-6.28;84.41
75788;BME280;64406;50.024;14.492;2023-03-01T06:13:44;98997.03;;;-6.44;83.89
75788;BME280;64406;50.024;14.492;2023-03-01T06:16:10;99026.34;;;-6.23;84.07
75788;BME280;64406;50.024;14.492;2023-03-01T06:18:37;99040.28;;;-6.22;83.90
75788;BME280;64406;50.024;14.492;2023-03-01T06:21:05;99030.75;;;-6.23;84.84
75788;BME280;64406;50.024;14.492;2023-03-01T06:23:32;99040.66;;;-6.17;83.78
75788;BME280;64406;50.024;14.492;2023-03-01T06:25:58;99050.59;;;-6.03;83.41
75788;BME280;64406;50.024;14.492;2023-03-01T06:28:23;99050.28;;;-6.00;83.98
75788;BME280;64406;50.024;14.492;2023-03-01T06:30:50;99039.00;;;-6.00;84.97
75788;BME280;64406;50.024;14.492;2023-03-01T06:33:15;99050.69;;;-5.87;84.79
75788;BME280;64406;50.024;14.492;2023-03-01T06:35:41;99031.34;;;-5.86;83.65
75788;BME280;64406;50.024;14.492;2023-03-01T06:38:07;99049.00;;;-5.62;84.21
75788;BME280;64406;50.024;14.492;2023-03-01T06:40:32;99031.03;;;-5.49;83.75
75788;BME280;64406;50.024;14.492;2023-03-01T06:43:01;99044.09;;;-5.31;82.79
75788;BME280;64406;50.024;14.492;2023-03-01T06:45:30;99041.50;;;-5.23;82.90
75788;BME280;64406;50.024;14.492;2023-03-01T06:48:06;99018.03;;;-5.24;82.58
75788;BME280;64406;50.024;14.492;2023-03-01T06:50:32;99030.72;;;-5.11;82.11
75788;BME280;64406;50.024;14.492;2023-03-01T06:52:58;99036.88;;;-4.95;80.75
75788;BME280;64406;50.024;14.492;2023-03-01T06:55:24;99030.28;;;-4.90;80.89
75788;BME280;64406;50.024;14.492;2023-03-01T06:57:57;99037.06;;;-4.80;79.88
75788;BME280;64406;50.024;14.492;2023-03-01T07:00:24;99043.16;;;-4.71;80.16
75788;BME280;64406;50.024;14.492;2023-03-01T07:02:50;99026.56;;;-4.80;80.08
75788;BME280;64406;50.024;14.492;2023-03-01T07:05:15;99036.09;;;-4.62;79.43
75788;BME280;64406;50.024;14.492;2023-03-01T07:07:41;99032.19;;;-4.58;79.44
75788;BME280;64406;50.024;14.492;2023-03-01T07:10:07;99021.66;;;-4.50;78.60
75788;BME280;64406;50.024;14.492;2023-03-01T07:12:36;99045.19;;;-4.16;77.33
75788;BME280;64406;50.024;14.492;2023-03-01T07:15:03;99059.69;;;-3.88;76.53
75788;BME280;64406;50.024;14.492;2023-03-01T07:17:30;98976.16;;;-4.02;75.43
75788;BME280;64406;50.024;14.492;2023-03-01T07:19:56;99010.09;;;-3.60;73.69
75788;BME280;64406;50.024;14.492;2023-03-01T07:22:22;99044.31;;;-3.51;74.03
75788;BME280;64406;50.024;14.492;2023-03-01T07:24:48;99047.47;;;-3.56;74.71
75788;BME280;64406;50.024;14.492;2023-03-01T07:27:14;99009.69;;;-3.96;75.52
75788;BME280;64406;50.024;14.492;2023-03-01T07:29:39;99014.41;;;-3.83;75.61
75788;BME280;64406;50.024;14.492;2023-03-01T07:32:06;99066.69;;;-3.47;75.70
75788;BME280;64406;50.024;14.492;2023-03-01T07:34:32;99068.31;;;-3.38;75.27
75788;BME280;64406;50.024;14.492;2023-03-01T07:36:57;99033.63;;;-3.58;75.73
75788;BME280;64406;50.024;14.492;2023-03-01T07:39:23;99057.97;;;-3.01;73.91
75788;BME280;64406;50.024;14.492;2023-03-01T07:41:50;99056.50;;;-2.64;72.97
75788;BME280;64406;50.024;14.492;2023-03-01T07:44:15;99044.66;;;-2.45;71.31
75788;BME280;64406;50.024;14.492;2023-03-01T07:46:43;99042.50;;;-2.41;71.23
75788;BME280;64406;50.024;14.492;2023-03-01T07:49:14;99042.91;;;-2.30;70.66
75788;BME280;64406;50.024;14.492;2023-03-01T07:51:43;99056.63;;;-2.57;71.00
75788;BME280;64406;50.024;14.492;2023-03-01T07:54:09;99054.44;;;-2.85;71.79
75788;BME280;64406;50.024;14.492;2023-03-01T07:56:35;99058.44;;;-2.89;72.73
75788;BME280;64406;50.024;14.492;2023-03-01T07:59:03;99065.66;;;-2.91;71.45
75788;BME280;64406;50.024;14.492;2023-03-01T08:01:28;99057.47;;;-2.96;72.41
75788;BME280;64406;50.024;14.492;2023-03-01T08:03:54;99053.22;;;-2.20;70.96
75788;BME280;64406;50.024;14.492;2023-03-01T08:06:20;99051.00;;;-0.82;64.82
75788;BME280;64406;50.024;14.492;2023-03-01T08:08:45;99041.72;;;-1.67;67.69
75788;BME280;64406;50.024;14.492;2023-03-01T08:11:14;99050.31;;;-1.87;68.75
75788;BME280;64406;50.024;14.492;2023-03-01T08:13:39;99040.63;;;-2.10;69.18
75788;BME280;64406;50.024;14.492;2023-03-01T08:16:08;99041.50;;;-2.17;70.18
75788;BME280;64406;50.024;14.492;2023-03-01T08:18:35;99039.47;;;-2.30;69.91
75788;BME280;64406;50.024;14.492;2023-03-01T08:21:05;99037.34;;;-2.35;70.54
75788;BME280;64406;50.024;14.492;2023-03-01T08:23:31;99041.69;;;-2.42;71.11
75788;BME280;64406;50.024;14.492;2023-03-01T08:26:23;99045.31;;;-2.20;70.60
75788;BME280;64406;50.024;14.492;2023-03-01T08:28:49;99044.66;;;-2.22;70.77
75788;BME280;64406;50.024;14.492;2023-03-01T08:31:31;99037.31;;;-2.12;70.79
75788;BME280;64406;50.024;14.492;2023-03-01T08:33:59;99034.78;;;-2.05;69.97
75788;BME280;64406;50.024;14.492;2023-03-01T08:36:28;99040.34;;;-2.00;70.16
75788;BME280;64406;50.024;14.492;2023-03-01T08:38:54;99039.47;;;-1.93;68.76
75788;BME280;64406;50.024;14.492;2023-03-01T08:41:20;99041.06;;;-1.83;68.67
75788;BME280;64406;50.024;14.492;2023-03-01T08:43:46;99040.34;;;-1.77;68.64
75788;BME280;64406;50.024;14.492;2023-03-01T08:46:12;99035.16;;;-1.71;67.91
75788;BME280;64406;50.024;14.492;2023-03-01T08:48:38;99031.63;;;-1.63;67.74
75788;BME280;64406;50.024;14.492;2023-03-01T08:51:15;99032.53;;;-1.56;67.36
75788;BME280;64406;50.024;14.492;2023-03-01T08:53:43;99026.81;;;-1.45;66.34
75788;BME280;64406;50.024;14.492;2023-03-01T08:56:09;99039.28;;;-1.39;67.11
75788;BME280;64406;50.024;14.492;2023-03-01T08:58:37;99019.41;;;-1.34;66.60
75788;BME280;64406;50.024;14.492;2023-03-01T09:01:10;99021.13;;;-1.27;66.57
75788;BME280;64406;50.024;14.492;2023-03-01T09:03:36;99024.22;;;-1.08;65.42
75788;BME280;64406;50.024;14.492;2023-03-01T09:06:04;99015.25;;;-0.93;65.50
75788;BME280;64406;50.024;14.492;2023-03-01T09:08:30;99021.41;;;-0.92;64.34
75788;BME280;64406;50.024;14.492;2023-03-01T09:10:56;99004.03;;;-0.80;63.86
75788;BME280;64406;50.024;14.492;2023-03-01T09:13:22;99009.66;;;-0.68;63.35
75788;BME280;64406;50.024;14.492;2023-03-01T09:15:51;99008.28;;;-0.64;63.13
75788;BME280;64406;50.024;14.492;2023-03-01T09:18:17;99001.16;;;-0.64;63.37
75788;BME280;64406;50.024;14.492;2023-03-01T09:20:42;98995.38;;;-0.52;63.72
75788;BME280;64406;50.024;14.492;2023-03-01T09:23:08;98993.63;;;-0.45;62.70
75788;BME280;64406;50.024;14.492;2023-03-01T09:25:34;98987.00;;;-0.35;61.55
75788;BME280;64406;50.024;14.492;2023-03-01T09:28:00;98987.31;;;-0.23;62.02
75788;BME280;64406;50.024;14.492;2023-03-01T09:30:25;98989.00;;;-0.15;60.87
75788;BME280;64406;50.024;14.492;2023-03-01T09:32:51;98992.72;;;-0.10;60.03
75788;BME280;64406;50.024;14.492;2023-03-01T09:35:17;98987.72;;;0.02;59.99
75788;BME280;64406;50.024;14.492;2023-03-01T09:37:46;98977.63;;;0.19;59.51
75788;BME280;64406;50.024;14.492;2023-03-01T09:40:15;98978.16;;;0.36;59.80
75788;BME280;64406;50.024;14.492;2023-03-01T09:43:01;98983.88;;;0.39;58.77
75788;BME280;64406;50.024;14.492;2023-03-01T09:45:36;98986.78;;;0.44;58.05
75788;BME280;64406;50.024;14.492;2023-03-01T09:48:03;98983.97;;;0.52;57.71
75788;BME280;64406;50.024;14.492;2023-03-01T09:50:35;98981.56;;;0.58;57.99
75788;BME280;64406;50.024;14.492;2023-03-01T09:53:10;98980.19;;;0.68;58.45
75788;BME280;64406;50.024;14.492;2023-03-01T09:55:39;98979.81;;;0.78;57.90
75788;BME280;64406;50.024;14.492;2023-03-01T10:00:59;98966.66;;;1.04;57.18
75788;BME280;64406;50.024;14.492;2023-03-01T10:03:38;98977.72;;;1.15;56.80
75788;BME280;64406;50.024;14.492;2023-03-01T10:06:14;98972.00;;;1.18;56.41
75788;BME280;64406;50.024;14.492;2023-03-01T10:11:36;98955.28;;;1.17;55.56
75788;BME280;64406;50.024;14.492;2023-03-01T10:14:05;98955.53;;;1.29;55.50
75788;BME280;64406;50.024;14.492;2023-03-01T10:19:22;98938.59;;;1.43;55.01
75788;BME280;64406;50.024;14.492;2023-03-01T10:21:50;98945.34;;;1.46;54.94
75788;BME280;64406;50.024;14.492;2023-03-01T10:24:18;98937.19;;;1.47;55.02
75788;BME280;64406;50.024;14.492;2023-03-01T10:26:55;98940.06;;;1.59;54.60
75788;BME280;64406;50.024;14.492;2023-03-01T10:29:34;98935.34;;;1.54;55.30
75788;BME280;64406;50.024;14.492;2023-03-01T10:32:04;98940.88;;;1.66;54.38
75788;BME280;64406;50.024;14.492;2023-03-01T10:34:34;98939.84;;;1.67;54.28
75788;BME280;64406;50.024;14.492;2023-03-01T10:37:09;98940.47;;;1.76;54.03
75788;BME280;64406;50.024;14.492;2023-03-01T10:39:35;98943.94;;;1.76;54.21
75788;BME280;64406;50.024;14.492;2023-03-01T10:42:04;98933.91;;;1.72;54.26
75788;BME280;64406;50.024;14.492;2023-03-01T10:44:45;98933.09;;;1.84;54.19
75788;BME280;64406;50.024;14.492;2023-03-01T10:47:17;98931.69;;;1.88;54.33
75788;BME280;64406;50.024;14.492;2023-03-01T10:49:52;98924.72;;;2.01;53.93
75788;BME280;64406;50.024;14.492;2023-03-01T10:52:20;98918.38;;;2.02;53.68
75788;BME280;64406;50.024;14.492;2023-03-01T10:55:02;98926.75;;;2.12;53.82
75788;BME280;64406;50.024;14.492;2023-03-01T10:57:31;98916.13;;;2.12;52.94
75788;BME280;64406;50.024;14.492;2023-03-01T11:00:24;98910.59;;;2.20;53.22
75788;BME280;64406;50.024;14.492;2023-03-01T11:05:24;98908.91;;;2.39;52.51
75788;BME280;64406;50.024;14.492;2023-03-01T11:07:58;98900.50;;;2.49;52.43
75788;BME280;64406;50.024;14.492;2023-03-01T11:10:27;98893.09;;;2.51;52.04
75788;BME280;64406;50.024;14.492;2023-03-01T11:13:07;98891.91;;;2.47;52.47
75788;BME280;64406;50.024;14.492;2023-03-01T11:15:33;98891.44;;;2.63;52.23
75788;BME280;64406;50.024;14.492;2023-03-01T11:17:59;98881.41;;;2.65;51.80
75788;BME280;64406;50.024;14.492;2023-03-01T11:20:29;98883.03;;;2.66;52.40
75788;BME280;64406;50.024;14.492;2023-03-01T11:22:59;98875.44;;;2.69;51.13
75788;BME280;64406;50.024;14.492;2023-03-01T11:25:30;98869.47;;;2.81;50.70
75788;BME280;64406;50.024;14.492;2023-03-01T11:27:58;98875.84;;;2.73;50.21
75788;BME280;64406;50.024;14.492;2023-03-01T11:30:32;98876.00;;;2.85;50.78
75788;BME280;64406;50.024;14.492;2023-03-01T11:33:13;98868.41;;;2.88;49.88
75788;BME280;64406;50.024;14.492;2023-03-01T11:35:47;98863.88;;;2.89;50.08
75788;BME280;64406;50.024;14.492;2023-03-01T11:38:22;98868.91;;;3.04;49.60
75788;BME280;64406;50.024;14.492;2023-03-01T11:40:57;98856.81;;;3.08;50.43
75788;BME280;64406;50.024;14.492;2023-03-01T11:59:42;98847.03;;;3.33;50.07
75788;BME280;64406;50.024;14.492;2023-03-01T12:13:06;98825.22;;;3.68;48.86
75788;BME280;64406;50.024;14.492;2023-03-01T12:16:19;98823.75;;;3.72;48.67
75788;BME280;64406;50.024;14.492;2023-03-01T12:21:57;98827.91;;;3.86;48.83
75788;BME280;64406;50.024;14.492;2023-03-01T12:27:27;98816.44;;;3.86;49.80
75788;BME280;64406;50.024;14.492;2023-03-01T12:35:50;98809.22;;;4.11;47.93
75788;BME280;64406;50.024;14.492;2023-03-01T12:47:12;98789.19;;;4.20;48.00
75788;BME280;64406;50.024;14.492;2023-03-01T12:49:46;98779.88;;;4.29;48.17
75788;BME280;64406;50.024;14.492;2023-03-01T12:52:23;98779.03;;;4.29;47.34
75788;BME280;64406;50.024;14.492;2023-03-01T12:54:53;98780.38;;;4.38;47.41
75788;BME280;64406;50.024;14.492;2023-03-01T12:57:37;98786.75;;;4.37;47.79
75788;BME280;64406;50.024;14.492;2023-03-01T13:02:49;98772.88;;;4.47;48.13
75788;BME280;64406;50.024;14.492;2023-03-01T13:05:33;98774.63;;;4.53;46.80
75788;BME280;64406;50.024;14.492;2023-03-01T13:10:51;98764.25;;;4.75;46.47
75788;BME280;64406;50.024;14.492;2023-03-01T13:13:24;98760.25;;;4.84;45.54
75788;BME280;64406;50.024;14.492;2023-03-01T13:15:51;98755.16;;;5.06;44.28
75788;BME280;64406;50.024;14.492;2023-03-01T13:20:47;98743.78;;;6.44;41.67
75788;BME280;64406;50.024;14.492;2023-03-01T13:30:58;98739.66;;;11.87;31.30
75788;BME280;64406;50.024;14.492;2023-03-01T13:35:55;98725.34;;;14.12;28.25
75788;BME280;64406;50.024;14.492;2023-03-01T13:46:45;98736.13;;;15.82;25.71
75788;BME280;64406;50.024;14.492;2023-03-01T13:49:18;98743.25;;;16.60;24.10
75788;BME280;64406;50.024;14.492;2023-03-01T13:51:51;98745.44;;;17.08;23.86
75788;BME280;64406;50.024;14.492;2023-03-01T13:54:29;98742.88;;;16.39;24.53
75788;BME280;64406;50.024;14.492;2023-03-01T13:56:58;98752.25;;;17.42;23.10
75788;BME280;64406;50.024;14.492;2023-03-01T13:59:24;98735.91;;;17.42;23.10
75788;BME280;64406;50.024;14.492;2023-03-01T14:01:58;98738.09;;;17.31;23.29
75788;BME280;64406;50.024;14.492;2023-03-01T14:04:34;98734.88;;;17.29;23.30
75788;BME280;64406;50.024;14.492;2023-03-01T14:07:16;98727.66;;;18.17;22.67
75788;BME280;64406;50.024;14.492;2023-03-01T14:09:45;98726.78;;;18.57;21.98
75788;BME280;64406;50.024;14.492;2023-03-01T14:17:26;98730.38;;;19.09;21.40
75788;BME280;64406;50.024;14.492;2023-03-01T14:19:59;98731.53;;;17.85;22.37
75788;BME280;64406;50.024;14.492;2023-03-01T14:22:32;98715.50;;;18.24;22.17
75788;BME280;64406;50.024;14.492;2023-03-01T14:25:01;98713.16;;;18.65;21.84
75788;BME280;64406;50.024;14.492;2023-03-01T14:27:34;98712.69;;;18.06;22.38
75788;BME280;64406;50.024;14.492;2023-03-01T14:30:12;98717.00;;;17.67;22.41
75788;BME280;64406;50.024;14.492;2023-03-01T14:32:39;98713.03;;;17.74;22.55
75788;BME280;64406;50.024;14.492;2023-03-01T14:35:23;98713.66;;;17.71;21.91
75788;BME280;64406;50.024;14.492;2023-03-01T14:37:49;98716.78;;;17.86;21.88
75788;BME280;64406;50.024;14.492;2023-03-01T14:42:52;98720.41;;;16.97;23.26
75788;BME280;64406;50.024;14.492;2023-03-01T14:45:19;98708.44;;;17.29;23.27